Time;durP1;ratioP1;P1;durP2;ratioP2;P2;SDS_P1;SDS_P2;PMS_P1;PMS_P2;Temp;Humidity;BMP_temperature;BMP_pressure;BME280_temperature;BME280_humidity;BME280_pressure;Samples;Min_cycle;Max_cycle;Signal;HPM_P1;HPM_P2
2022/10/04 00:00:35;;;;;;;3.97;3.15;;;;;;;12.22;89.76;102362.03;5043154;28;20131;-73
2022/10/04 00:03:17;;;;;;;3.42;3.20;;;;;;;12.23;89.58;102365.53;5075010;28;20040;-73
2022/10/04 00:05:49;;;;;;;3.30;3.00;;;;;;;12.23;89.69;102361.13;5056509;28;20021;-73
2022/10/04 00:08:47;;;;;;;4.57;3.00;;;;;;;12.21;89.83;102359.47;5060296;28;20402;-73
2022/10/04 00:11:29;;;;;;;3.38;2.97;;;;;;;12.21;89.83;102356.84;5076762;28;20040;-73
2022/10/04 00:13:58;;;;;;;3.53;3.22;;;;;;;12.21;89.72;102348.94;5058293;28;20048;-73
2022/10/04 00:16:33;;;;;;;4.90;3.95;;;;;;;12.20;89.74;102360.34;5057042;28;20021;-73
2022/10/04 00:19:01;;;;;;;3.92;3.03;;;;;;;12.19;89.68;102353.38;5064457;28;20032;-73
2022/10/04 00:21:55;;;;;;;4.55;3.15;;;;;;;12.19;89.83;102358.63;5058752;28;20312;-73
2022/10/04 00:24:33;;;;;;;5.18;3.45;;;;;;;12.19;89.66;102350.75;5059115;28;20032;-73
2022/10/04 00:27:11;;;;;;;5.68;2.90;;;;;;;12.18;89.76;102351.66;5077597;28;20085;-73
2022/10/04 00:29:41;;;;;;;4.45;3.05;;;;;;;12.17;89.93;102339.41;5066298;28;20029;-73
2022/10/04 00:32:09;;;;;;;3.58;3.05;;;;;;;12.17;89.93;102335.03;5062919;28;20028;-73
2022/10/04 00:34:34;;;;;;;3.42;3.13;;;;;;;12.16;90.02;102335.06;5058049;28;20060;-72
2022/10/04 00:37:00;;;;;;;4.00;3.37;;;;;;;12.16;90.08;102335.06;5077864;28;20086;-73
2022/10/04 00:39:38;;;;;;;3.90;3.35;;;;;;;12.15;90.12;102333.31;5058449;28;20294;-73
2022/10/04 00:42:34;;;;;;;4.50;3.30;;;;;;;12.15;89.96;102335.94;5072339;28;20339;-73
2022/10/04 00:45:13;;;;;;;4.88;3.00;;;;;;;12.14;89.66;102347.38;5066449;28;20051;-73
2022/10/04 00:47:45;;;;;;;7.88;4.45;;;;;;;12.13;90.02;102348.25;5077135;28;20206;-73
2022/10/04 00:50:28;;;;;;;4.57;3.45;;;;;;;12.12;89.78;102355.28;5065841;28;20331;-72
2022/10/04 00:52:56;;;;;;;7.22;3.80;;;;;;;12.12;90.03;102357.91;5068875;28;20036;-73
2022/10/04 00:55:38;;;;;;;6.47;4.00;;;;;;;12.11;90.20;102343.03;5064451;28;20025;-73
2022/10/04 00:58:11;;;;;;;4.55;3.92;;;;;;;12.12;90.52;102346.53;5057060;28;20025;-73
2022/10/04 01:04:02;;;;;;;5.75;3.67;;;;;;;12.09;90.32;102332.56;5073374;28;20066;-72
2022/10/04 01:06:28;;;;;;;6.78;3.85;;;;;;;12.08;90.38;102325.59;5058714;28;20319;-73
2022/10/04 01:09:00;;;;;;;5.43;4.05;;;;;;;12.08;89.89;102327.38;5056946;28;20032;-73
2022/10/04 01:11:41;;;;;;;5.85;4.50;;;;;;;12.07;90.38;102315.13;5073526;28;20399;-73
2022/10/04 01:14:18;;;;;;;6.28;4.22;;;;;;;12.06;89.99;102314.28;5058783;28;20065;-73
2022/10/04 01:16:43;;;;;;;4.65;4.20;;;;;;;12.05;90.27;102311.69;5056469;28;20092;-73
2022/10/04 01:19:20;;;;;;;4.70;4.15;;;;;;;12.04;90.20;102310.81;5056553;28;20055;-73
2022/10/04 01:21:56;;;;;;;6.60;4.32;;;;;;;12.04;90.16;102313.44;5057558;28;20203;-73
2022/10/04 01:24:23;;;;;;;4.90;3.90;;;;;;;12.03;89.92;102309.06;5056058;28;20036;-73
2022/10/04 01:26:48;;;;;;;4.57;4.18;;;;;;;12.02;90.02;102298.59;5076717;28;20352;-73
2022/10/04 01:29:17;;;;;;;4.78;4.32;;;;;;;12.02;89.68;102311.72;5058186;28;20032;-73
2022/10/04 01:31:46;;;;;;;4.75;4.05;;;;;;;12.01;89.57;102302.16;5058334;28;20040;-72
2022/10/04 01:34:17;;;;;;;4.38;3.97;;;;;;;12.00;89.93;102284.66;5055983;28;20076;-74
2022/10/04 01:36:45;;;;;;;4.38;4.00;;;;;;;11.99;89.93;102281.19;5057739;28;20095;-73
2022/10/04 01:39:13;;;;;;;8.18;4.03;;;;;;;11.98;89.84;102281.22;5037930;28;20336;-73
2022/10/04 01:41:57;;;;;;;5.05;4.28;;;;;;;11.97;89.71;102269.84;5072454;28;20024;-73
2022/10/04 01:44:28;;;;;;;8.10;4.13;;;;;;;11.96;89.56;102262.00;5057749;28;20069;-72
2022/10/04 01:46:58;;;;;;;5.70;4.28;;;;;;;11.94;89.84;102262.03;5057764;28;20035;-73
2022/10/04 01:49:29;;;;;;;7.00;4.93;;;;;;;11.94;89.58;102256.78;5054439;28;20060;-73
2022/10/04 01:52:02;;;;;;;6.32;4.47;;;;;;;11.94;89.46;102258.56;5054516;28;20096;-73
2022/10/04 01:54:38;;;;;;;5.72;4.45;;;;;;;11.92;89.39;102236.72;5057394;28;20043;-73
2022/10/04 01:57:03;;;;;;;4.35;3.95;;;;;;;11.92;89.46;102239.34;5058735;28;20389;-73
2022/10/04 01:59:43;;;;;;;4.88;4.43;;;;;;;11.91;89.75;102246.34;5072734;28;20083;-72
2022/10/04 02:02:31;;;;;;;6.22;4.50;;;;;;;11.89;89.49;102235.00;5073423;28;20201;-73
2022/10/04 02:04:58;;;;;;;;;;;;;;;11.88;89.49;102233.28;5064312;28;20236;-73
2022/10/04 02:07:28;;;;;;;4.75;4.32;;;;;;;11.86;89.30;102228.06;5073954;28;20080;-73
2022/10/04 02:09:58;;;;;;;7.43;4.80;;;;;;;11.86;89.45;102220.19;5070228;28;20044;-73
2022/10/04 02:12:27;;;;;;;5.05;4.50;;;;;;;11.84;89.59;102214.13;5073114;28;20132;-72
2022/10/04 02:14:54;;;;;;;5.35;4.85;;;;;;;11.83;89.53;102207.13;5054553;28;20112;-73
2022/10/04 02:17:26;;;;;;;4.90;4.57;;;;;;;11.83;89.39;102201.03;5071493;28;20052;-73
2022/10/04 02:19:52;;;;;;;5.55;5.05;;;;;;;11.83;89.63;102190.53;5074574;28;20029;-73
2022/10/04 02:22:18;;;;;;;5.68;4.90;;;;;;;11.81;89.66;102184.47;5037555;28;20044;-73
2022/10/04 02:24:47;;;;;;;4.57;4.25;;;;;;;11.80;89.24;102180.09;5068424;28;20040;-73
2022/10/04 02:27:13;;;;;;;6.63;4.95;;;;;;;11.79;89.57;102175.72;5061354;28;20056;-73
2022/10/04 02:29:39;;;;;;;5.38;4.88;;;;;;;11.78;89.51;102182.75;5067231;28;20074;-74
2022/10/04 02:34:51;;;;;;;5.53;4.95;;;;;;;11.77;89.58;102177.53;5055744;28;20060;-73
2022/10/04 02:37:17;;;;;;;5.82;5.28;;;;;;;11.76;89.27;102166.19;5068511;28;20224;-74
2022/10/04 02:39:47;;;;;;;6.40;5.70;;;;;;;11.75;89.66;102168.84;5054163;28;20106;-74
2022/10/04 02:42:27;;;;;;;7.40;5.68;;;;;;;11.75;89.30;102174.09;5063438;28;20019;-73
2022/10/04 02:45:04;;;;;;;5.35;4.85;;;;;;;11.73;89.34;102176.75;5054533;28;20114;-73
2022/10/04 02:47:42;;;;;;;8.98;5.57;;;;;;;11.72;89.50;102164.53;5068537;28;20377;-73
2022/10/04 02:50:37;;;;;;;6.22;5.72;;;;;;;11.71;89.45;102157.56;5075724;28;20016;-73
2022/10/04 02:53:32;;;;;;;6.80;5.72;;;;;;;11.69;89.25;102144.47;5077754;28;20041;-73
2022/10/04 02:55:57;;;;;;;7.45;5.55;;;;;;;11.68;89.23;102140.13;5051242;28;20154;-72
2022/10/04 02:58:25;;;;;;;6.13;5.57;;;;;;;11.67;89.20;102140.16;5060663;28;20319;-72
2022/10/04 03:00:55;;;;;;;5.82;5.32;;;;;;;11.66;89.29;102141.06;5079360;28;20020;-72
2022/10/04 03:03:29;;;;;;;7.60;6.38;;;;;;;11.65;89.39;102145.44;5078339;28;20248;-72
2022/10/04 03:06:11;;;;;;;6.97;6.18;;;;;;;11.64;89.13;102151.63;5061292;28;20088;-72
2022/10/04 03:08:42;;;;;;;8.27;6.55;;;;;;;11.64;89.13;102162.09;5059138;28;20029;-72
2022/10/04 03:11:10;;;;;;;7.53;5.75;;;;;;;11.63;89.45;102146.41;5059324;28;20025;-72
2022/10/04 03:13:38;;;;;;;6.25;5.65;;;;;;;11.61;89.50;102135.94;5060255;28;20366;-72
2022/10/04 03:16:04;;;;;;;6.95;5.97;;;;;;;11.61;89.41;102129.84;5078942;28;20060;-72
2022/10/04 03:18:31;;;;;;;7.13;6.43;;;;;;;11.60;89.05;102128.94;5057074;28;20075;-72
2022/10/04 03:21:01;;;;;;;5.97;5.47;;;;;;;11.58;89.57;102115.00;5059169;28;20028;-72
2022/10/04 03:23:29;;;;;;;5.90;5.22;;;;;;;11.58;89.28;102120.25;5059851;28;20048;-72
2022/10/04 03:26:02;;;;;;;7.45;5.93;;;;;;;11.57;89.38;102115.94;5059315;28;20039;-72
2022/10/04 03:28:28;;;;;;;6.43;5.82;;;;;;;11.56;89.39;102108.09;5056710;28;20025;-72
2022/10/04 03:30:54;;;;;;;8.00;6.53;;;;;;;11.57;89.76;102110.69;5058711;28;20241;-72
2022/10/04 03:33:23;;;;;;;7.50;6.40;;;;;;;11.56;89.95;102113.34;5060620;28;20033;-72
2022/10/04 03:35:53;;;;;;;;;;;;;;;11.55;89.88;102109.84;5059087;28;20049;-72
2022/10/04 03:38:19;;;;;;;8.45;5.93;;;;;;;11.56;89.91;102106.31;5060931;28;19909;-72
2022/10/04 03:40:57;;;;;;;6.97;6.35;;;;;;;11.55;90.26;102090.59;5058529;28;20285;-72
2022/10/04 03:43:27;;;;;;;9.30;5.78;;;;;;;11.53;90.16;102088.91;5059779;28;20036;-72
2022/10/04 03:45:53;;;;;;;7.18;6.55;;;;;;;11.52;90.12;102086.31;5078404;28;20028;-72
2022/10/04 03:48:30;;;;;;;7.40;6.00;;;;;;;11.52;90.41;102089.78;5074125;28;20274;-72
2022/10/04 03:50:57;;;;;;;7.03;6.20;;;;;;;11.51;90.45;102088.09;5078828;28;20032;-72
2022/10/04 03:53:30;;;;;;;8.75;6.30;;;;;;;11.51;90.22;102100.31;5059641;28;20115;-72
2022/10/04 03:55:57;;;;;;;6.75;6.13;;;;;;;11.51;90.39;102100.31;5060335;28;20209;-72
2022/10/04 03:58:25;;;;;;;6.43;5.88;;;;;;;11.50;90.36;102096.84;5059745;28;20044;-72
2022/10/04 04:01:04;;;;;;;6.30;5.70;;;;;;;11.51;90.54;102097.69;5078263;28;20047;-72
2022/10/04 04:03:32;;;;;;;;;;;;;;;11.50;90.83;102107.34;5055972;28;20032;-72
2022/10/04 04:06:01;;;;;;;8.93;6.25;;;;;;;11.49;90.76;102105.59;5058220;28;19936;-72
2022/10/04 04:08:38;;;;;;;6.47;5.85;;;;;;;11.49;90.88;102102.97;5069490;28;20221;-72
2022/10/04 04:11:06;;;;;;;5.97;5.47;;;;;;;11.49;90.91;102102.97;5060011;28;20059;-72
2022/10/04 04:13:49;;;;;;;7.70;6.93;;;;;;;11.48;90.98;102101.28;5065809;28;20317;-72
2022/10/04 04:16:18;;;;;;;8.52;6.70;;;;;;;11.47;91.00;102107.41;5057612;28;20101;-72
2022/10/04 04:18:47;;;;;;;7.85;6.28;;;;;;;11.47;90.92;102104.78;5068243;28;20093;-72
2022/10/04 04:21:17;;;;;;;6.70;6.10;;;;;;;11.46;91.04;102112.69;5059596;28;20231;-72
2022/10/04 04:24:02;;;;;;;7.55;6.10;;;;;;;11.46;91.05;102107.44;5065610;28;20057;-72
2022/10/04 04:26:39;;;;;;;6.07;5.45;;;;;;;11.46;91.07;102110.06;5052284;28;20240;-72
2022/10/04 04:29:14;;;;;;;8.73;6.18;;;;;;;11.46;91.11;102104.81;5057978;28;20246;-72
2022/10/04 04:31:44;;;;;;;5.72;5.30;;;;;;;11.45;90.92;102098.72;5058072;28;20106;-72
2022/10/04 04:34:19;;;;;;;8.30;7.20;;;;;;;11.45;91.06;102098.72;5077671;28;20036;-72
2022/10/04 04:36:45;;;;;;;7.13;5.85;;;;;;;11.44;90.89;102102.25;5075938;28;20032;-72
2022/10/04 04:39:39;;;;;;;8.38;6.00;;;;;;;11.44;90.86;102102.25;5078166;28;20209;-72
2022/10/04 04:42:16;;;;;;;6.75;5.65;;;;;;;11.43;90.38;102103.13;5056226;28;20090;-72
2022/10/04 04:44:54;;;;;;;7.90;6.90;;;;;;;11.43;90.44;102092.63;5068117;28;20040;-72
2022/10/04 04:47:33;;;;;;;;;;;;;;;11.43;90.64;102097.03;5072175;28;20235;-72
2022/10/04 04:50:05;;;;;;;6.28;5.68;;;;;;;11.43;90.57;102100.50;5056096;28;20011;-72
2022/10/04 04:52:31;;;;;;;7.80;6.03;;;;;;;11.44;90.56;102096.13;5062187;28;20235;-72
2022/10/04 04:54:57;;;;;;;5.45;5.05;;;;;;;11.42;90.64;102101.41;5077578;28;20351;-72
2022/10/04 04:57:23;;;;;;;7.70;5.75;;;;;;;11.43;90.65;102104.91;5071395;28;20076;-72
2022/10/04 04:59:53;;;;;;;6.68;5.40;;;;;;;11.42;90.69;102098.78;5057446;28;20016;-72
2022/10/04 05:02:54;;;;;;;6.82;6.15;;;;;;;11.42;90.23;102096.16;5060651;28;20225;-72
2022/10/04 05:05:24;;;;;;;6.32;5.72;;;;;;;11.43;90.35;102099.66;5036168;28;20041;-73
2022/10/04 05:08:19;;;;;;;6.20;5.70;;;;;;;11.43;90.40;102097.03;5062037;28;20088;-73
2022/10/04 05:11:07;;;;;;;6.47;5.68;;;;;;;11.42;90.50;102098.78;5073476;28;20024;-72
2022/10/04 05:13:58;;;;;;;11.80;6.37;;;;;;;11.42;90.61;102100.53;5058311;28;20036;-74
2022/10/04 05:16:36;;;;;;;9.27;5.80;;;;;;;11.42;90.41;102098.78;5054863;28;20029;-72
2022/10/04 05:19:11;;;;;;;7.38;5.60;;;;;;;11.42;90.69;102097.91;5070243;28;20039;-72
2022/10/04 05:21:37;;;;;;;6.20;5.63;;;;;;;11.42;90.84;102090.03;5056972;28;20020;-72
2022/10/04 05:24:38;;;;;;;7.13;5.15;;;;;;;11.42;91.16;102097.91;5058942;28;20036;-72
2022/10/04 05:27:15;;;;;;;5.85;5.32;;;;;;;11.41;91.19;102088.34;5016232;28;20048;-72
2022/10/04 05:29:56;;;;;;;6.43;5.60;;;;;;;11.40;90.87;102090.09;5076142;28;20063;-72
2022/10/04 05:32:36;;;;;;;8.18;6.18;;;;;;;11.40;90.88;102087.47;5066635;28;20028;-72
2022/10/04 05:35:14;;;;;;;6.70;6.00;;;;;;;11.39;91.37;102077.88;5068275;28;20348;-72
2022/10/04 05:38:27;;;;;;;6.72;5.90;;;;;;;11.39;91.53;102077.00;5053906;28;20032;-72
2022/10/04 05:40:55;;;;;;;10.20;6.38;;;;;;;11.38;91.28;102073.53;5037796;28;20244;-72
2022/10/04 05:43:42;;;;;;;7.63;6.70;;;;;;;11.37;91.02;102077.06;5051214;28;20024;-72
2022/10/04 05:46:28;;;;;;;8.82;6.57;;;;;;;11.36;91.45;102077.94;5070901;28;20035;-72
2022/10/04 05:48:59;;;;;;;11.18;7.05;;;;;;;11.37;91.17;102068.31;5070154;28;20029;-72
2022/10/04 05:51:28;;;;;;;7.30;6.60;;;;;;;11.36;91.13;102074.47;5062419;28;20029;-74
2022/10/04 05:53:58;;;;;;;7.13;6.22;;;;;;;11.34;91.29;102064.88;5063917;28;20753;-72
2022/10/04 05:56:36;;;;;;;6.82;6.13;;;;;;;11.34;91.30;102059.63;5049518;28;20020;-72
2022/10/04 05:59:26;;;;;;;5.80;5.05;;;;;;;11.35;91.15;102060.50;5066843;28;20035;-72
2022/10/04 06:02:15;;;;;;;7.95;6.15;;;;;;;11.33;91.23;102051.78;5068590;28;20030;-72
2022/10/04 06:04:53;;;;;;;7.95;6.43;;;;;;;11.33;91.40;102060.53;5065990;28;20293;-72
2022/10/04 06:07:47;;;;;;;5.97;5.37;;;;;;;11.32;91.44;102056.19;5064413;28;20021;-72
2022/10/04 06:10:37;;;;;;;8.43;6.38;;;;;;;11.30;91.37;102055.34;5051851;28;20094;-72
2022/10/04 06:13:20;;;;;;;12.43;6.38;;;;;;;11.31;91.46;102054.47;5075901;28;20027;-72
2022/10/04 06:16:11;;;;;;;12.32;6.53;;;;;;;11.30;91.21;102051.88;5075084;28;20024;-72
2022/10/04 06:18:44;;;;;;;11.02;7.40;;;;;;;11.29;91.23;102051.00;5040430;28;20366;-72
2022/10/04 06:21:18;;;;;;;6.57;5.88;;;;;;;11.29;91.28;102051.00;5054382;28;20352;-72
2022/10/04 06:23:57;;;;;;;6.07;5.43;;;;;;;11.28;91.12;102044.06;5059503;28;20256;-72
2022/10/04 06:26:51;;;;;;;6.78;6.18;;;;;;;11.28;91.59;102043.19;5055517;28;20261;-72
2022/10/04 06:29:23;;;;;;;9.55;6.53;;;;;;;11.28;91.40;102051.91;5055120;28;20363;-73
2022/10/04 06:32:19;;;;;;;8.15;6.57;;;;;;;11.29;91.63;102047.53;5065316;28;20036;-73
2022/10/04 06:34:52;;;;;;;10.25;6.65;;;;;;;11.27;91.66;102052.81;5073283;28;20058;-73
2022/10/04 06:37:26;;;;;;;11.15;7.47;;;;;;;11.26;91.47;102047.59;5070655;28;20267;-73
2022/10/04 06:40:25;;;;;;;8.07;7.28;;;;;;;11.25;91.54;102053.75;5065967;28;20044;-73
2022/10/04 06:42:57;;;;;;;9.77;7.93;;;;;;;11.25;91.87;102046.72;5046516;28;20036;-73
2022/10/04 06:45:58;;;;;;;8.07;7.28;;;;;;;11.25;91.99;102040.63;5066499;28;20357;-73
2022/10/04 06:48:42;;;;;;;9.63;6.88;;;;;;;11.24;92.01;102041.53;5032555;28;20037;-73
2022/10/04 06:51:25;;;;;;;7.80;6.20;;;;;;;11.23;91.84;102035.44;5059414;28;20132;-73
2022/10/04 06:54:52;;;;;;;7.60;6.63;;;;;;;11.23;91.56;102038.03;5061382;28;20029;-73
2022/10/04 06:57:38;;;;;;;6.97;6.20;;;;;;;11.23;91.71;102030.19;5008484;28;20390;-73
2022/10/04 07:00:25;;;;;;;7.07;6.05;;;;;;;11.24;91.72;102033.66;4991327;28;20253;-73
2022/10/04 07:03:34;;;;;;;11.77;7.70;;;;;;;11.23;91.82;102024.94;5040995;28;20107;-73
2022/10/04 07:06:06;;;;;;;7.53;6.30;;;;;;;11.24;91.51;102033.66;4972327;28;20023;-73
2022/10/04 07:08:49;;;;;;;7.15;6.07;;;;;;;11.24;91.50;102037.16;4976464;28;20150;-73
2022/10/04 07:11:18;;;;;;;8.07;7.05;;;;;;;11.24;91.78;102038.91;5041388;28;20044;-73
2022/10/04 07:13:51;;;;;;;7.68;6.80;;;;;;;11.24;91.92;102036.28;5045566;28;20040;-73
2022/10/04 07:16:31;;;;;;;8.07;6.63;;;;;;;11.25;91.86;102045.88;5067864;28;20020;-73
2022/10/04 07:19:07;;;;;;;13.23;9.35;;;;;;;11.26;91.78;102044.97;5067913;28;20025;-73
2022/10/04 07:21:45;;;;;;;7.55;6.80;;;;;;;11.25;91.61;102045.88;5065432;28;20052;-73
2022/10/04 07:24:17;;;;;;;8.35;7.35;;;;;;;11.25;91.83;102049.34;5069361;28;20342;-73
2022/10/04 07:26:49;;;;;;;9.45;8.15;;;;;;;11.26;91.79;102048.47;5068924;28;20096;-73
2022/10/04 07:29:20;;;;;;;10.65;7.80;;;;;;;11.26;91.67;102048.47;5076497;28;20035;-73
2022/10/04 07:32:05;;;;;;;12.43;7.72;;;;;;;11.28;91.69;102058.94;5056223;28;20024;-73
2022/10/04 07:34:37;;;;;;;9.32;8.10;;;;;;;11.27;91.43;102044.94;5058519;28;20051;-73
2022/10/04 07:37:09;;;;;;;13.75;9.60;;;;;;;11.27;91.72;102044.94;5072216;28;20047;-73
2022/10/04 07:39:43;;;;;;;12.40;8.32;;;;;;;11.29;91.54;102052.78;5058087;28;20056;-73
2022/10/04 07:42:12;;;;;;;11.27;7.85;;;;;;;11.28;91.43;102051.91;5059556;28;20193;-73
2022/10/04 07:44:41;;;;;;;13.07;10.02;;;;;;;11.29;91.46;102066.72;5061798;28;20313;-73
2022/10/04 07:47:20;;;;;;;11.02;8.93;;;;;;;11.31;91.56;102069.31;5054469;28;20040;-73
2022/10/04 07:49:49;;;;;;;9.27;8.25;;;;;;;11.30;91.07;102062.38;5063623;28;20051;-73
2022/10/04 07:52:47;;;;;;;18.15;10.75;;;;;;;11.32;90.98;102060.56;5065087;28;20048;-73
2022/10/04 07:55:37;;;;;;;18.92;10.73;;;;;;;11.31;91.10;102064.97;5063897;28;20032;-73
2022/10/04 07:58:06;;;;;;;11.02;8.98;;;;;;;11.33;91.41;102072.75;5073203;28;20062;-73
2022/10/04 08:01:13;;;;;;;9.95;8.52;;;;;;;11.32;91.58;102058.81;5070918;28;20055;-73
2022/10/04 08:04:00;;;;;;;11.85;9.43;;;;;;;11.33;91.50;102063.16;5050138;28;20035;-73
2022/10/04 08:06:59;;;;;;;10.20;8.50;;;;;;;11.33;91.26;102059.66;5054802;28;20039;-73
2022/10/04 08:09:41;;;;;;;19.70;11.00;;;;;;;11.35;91.37;102071.00;5065337;28;20354;-73
2022/10/04 08:12:16;;;;;;;12.43;9.90;;;;;;;11.34;90.83;102077.97;5047909;28;20035;-73
2022/10/04 08:15:13;;;;;;;15.82;10.30;;;;;;;11.36;91.21;102067.47;5073443;28;20077;-73
2022/10/04 08:17:40;;;;;;;13.07;10.45;;;;;;;11.37;91.04;102063.06;5056236;28;20060;-73
2022/10/04 08:20:43;;;;;;;15.50;10.68;;;;;;;11.39;91.38;102053.41;5066669;28;20031;-73
2022/10/04 08:23:46;;;;;;;15.38;10.25;;;;;;;11.39;91.13;102058.63;5057192;28;20028;-73
2022/10/04 08:26:18;;;;;;;16.88;10.75;;;;;;;11.41;91.52;102055.09;5062115;28;20033;-73
2022/10/04 08:32:09;;;;;;;17.00;11.02;;;;;;;11.43;91.97;102048.03;5064030;28;20044;-73
2022/10/04 08:34:50;;;;;;;11.20;9.45;;;;;;;11.46;91.99;102052.34;5050339;28;20041;-73
2022/10/04 08:38:02;;;;;;;13.27;9.98;;;;;;;11.47;91.89;102049.69;5067249;28;20343;-73
2022/10/04 08:40:55;;;;;;;12.50;10.05;;;;;;;11.48;91.56;102055.81;5059262;28;20029;-73
2022/10/04 08:43:58;;;;;;;13.77;9.73;;;;;;;11.48;91.45;102055.81;5062076;28;20266;-73
2022/10/04 08:46:55;;;;;;;16.90;10.30;;;;;;;11.49;91.54;102052.28;5049601;28;20026;-73
2022/10/04 08:49:45;;;;;;;15.27;10.68;;;;;;;11.50;92.20;102054.88;5066649;28;20024;-73
2022/10/04 08:52:31;;;;;;;14.82;10.38;;;;;;;11.51;91.81;102055.72;5061485;28;20039;-73
2022/10/04 08:55:23;;;;;;;15.85;10.85;;;;;;;11.51;91.50;102061.84;5064514;28;20103;-73
2022/10/04 08:58:04;;;;;;;11.50;10.00;;;;;;;11.52;91.54;102055.69;5057733;28;20293;-73
2022/10/04 09:00:35;;;;;;;19.80;12.15;;;;;;;11.56;91.53;102063.50;5063335;28;20036;-73
2022/10/04 09:03:25;;;;;;;12.50;10.27;;;;;;;11.57;92.49;102057.31;5048938;28;20066;-73
2022/10/04 09:06:19;;;;;;;12.73;9.63;;;;;;;11.57;91.49;102049.44;5062909;28;20032;-73
2022/10/04 09:09:03;;;;;;;12.88;9.43;;;;;;;11.59;91.81;102055.50;5067891;28;20340;-73
2022/10/04 09:11:43;;;;;;;17.30;10.75;;;;;;;11.61;92.03;102053.75;5055416;28;20048;-73
2022/10/04 09:14:17;;;;;;;15.82;10.60;;;;;;;11.62;91.84;102050.19;5063932;28;20082;-73
2022/10/04 09:17:04;;;;;;;13.80;10.05;;;;;;;11.65;92.71;102047.50;5063121;28;20051;-73
2022/10/04 09:19:52;;;;;;;18.77;10.02;;;;;;;11.65;92.31;102043.09;5058577;28;20379;-73
2022/10/04 09:22:32;;;;;;;14.20;10.13;;;;;;;11.68;92.54;102056.16;5070642;28;20024;-73
2022/10/04 09:25:43;;;;;;;12.40;8.68;;;;;;;11.70;92.46;102056.97;5057467;28;20028;-73
2022/10/04 09:28:23;;;;;;;12.77;8.88;;;;;;;11.71;92.01;102040.34;5053451;28;20120;-73
2022/10/04 09:30:55;;;;;;;16.02;9.27;;;;;;;11.75;92.28;102032.38;5056106;28;20016;-73
2022/10/04 09:33:38;;;;;;;16.27;9.70;;;;;;;11.78;92.61;102024.44;5073149;28;20024;-73
2022/10/04 09:36:12;;;;;;;14.73;10.20;;;;;;;11.80;92.86;102020.00;5072387;28;20388;-73
2022/10/04 09:38:46;;;;;;;17.30;10.43;;;;;;;11.83;93.05;102007.66;5070886;28;20062;-73
2022/10/04 09:41:25;;;;;;;21.60;9.77;;;;;;;11.86;92.81;102007.56;5074075;28;20034;-73
2022/10/04 09:44:05;;;;;;;14.60;9.57;;;;;;;11.92;93.48;102017.06;5058258;28;20025;-73
2022/10/04 09:46:46;;;;;;;12.43;9.13;;;;;;;11.95;93.76;102005.63;5055986;28;20025;-73
2022/10/04 09:49:26;;;;;;;19.50;10.52;;;;;;;11.97;93.00;102007.31;5054920;28;20056;-73
2022/10/04 09:52:19;;;;;;;13.70;8.82;;;;;;;12.00;93.45;102014.22;5055686;28;20028;-73
2022/10/04 09:55:03;;;;;;;18.05;9.95;;;;;;;12.03;93.13;102022.03;5056053;28;20025;-73
2022/10/04 09:57:48;;;;;;;21.38;8.50;;;;;;;12.07;93.08;102021.88;5074100;28;20027;-73
2022/10/04 10:00:22;;;;;;;12.48;8.40;;;;;;;12.12;93.47;102023.53;5072453;28;20082;-73
2022/10/04 10:03:10;;;;;;;13.52;10.15;;;;;;;12.16;93.11;102023.41;5055948;28;20021;-73
2022/10/04 10:05:51;;;;;;;18.77;9.20;;;;;;;12.22;93.85;102024.97;5060743;28;20057;-73
2022/10/04 10:08:16;;;;;;;16.80;10.02;;;;;;;12.28;94.19;102024.81;5047039;28;20032;-73
2022/10/04 10:14:10;;;;;;;10.13;8.75;;;;;;;12.36;93.47;102028.06;5065010;28;20104;-73
2022/10/04 10:17:14;;;;;;;21.25;10.20;;;;;;;12.42;93.26;102029.66;5063714;28;20024;-73
2022/10/04 10:20:15;;;;;;;14.18;9.05;;;;;;;12.43;93.40;102016.47;5019561;28;20041;-73
2022/10/04 10:23:18;;;;;;;13.52;8.70;;;;;;;12.47;93.00;102019.88;5063812;28;20025;-73
2022/10/04 10:26:05;;;;;;;16.15;9.18;;;;;;;12.51;92.79;102013.63;5063691;28;20031;-73
2022/10/04 10:29:01;;;;;;;11.65;8.05;;;;;;;12.55;92.66;102009.13;5065051;28;20025;-73
2022/10/04 10:31:49;;;;;;;11.45;8.43;;;;;;;12.58;92.62;102007.28;5063004;28;20031;-73
2022/10/04 10:34:24;;;;;;;10.80;7.68;;;;;;;12.62;92.87;101997.53;5070135;28;20043;-73
2022/10/04 10:37:07;;;;;;;11.80;7.70;;;;;;;12.65;92.96;102005.31;5068979;28;20032;-73
2022/10/04 10:39:36;;;;;;;15.10;8.50;;;;;;;12.69;93.01;102004.31;5046913;28;20048;-73
2022/10/04 10:42:18;;;;;;;11.73;7.97;;;;;;;12.74;93.45;102001.56;5060255;28;20351;-73
2022/10/04 10:45:18;;;;;;;14.75;7.57;;;;;;;12.77;93.26;101998.81;5047473;28;20220;-73
2022/10/04 10:47:59;;;;;;;9.15;7.28;;;;;;;12.82;93.01;102007.41;5057065;28;20240;-73
2022/10/04 10:51:07;;;;;;;13.23;7.00;;;;;;;12.86;92.73;102006.41;5055234;28;20047;-73
2022/10/04 10:54:04;;;;;;;10.30;7.30;;;;;;;12.91;92.18;102011.53;5042246;28;20120;-73
2022/10/04 10:56:42;;;;;;;11.05;7.15;;;;;;;12.95;92.61;102008.78;5056308;28;20096;-73
2022/10/04 10:59:48;;;;;;;13.38;7.85;;;;;;;13.02;92.01;102009.41;5057565;28;20029;-73
2022/10/04 11:02:24;;;;;;;24.20;8.27;;;;;;;13.05;91.35;102004.06;5052053;28;20032;-73
2022/10/04 11:05:08;;;;;;;11.45;7.05;;;;;;;13.11;91.58;102000.38;5069948;28;20024;-73
2022/10/04 11:07:54;;;;;;;8.73;6.90;;;;;;;13.17;91.93;102003.66;5071403;28;20066;-73
2022/10/04 11:10:44;;;;;;;11.23;7.15;;;;;;;13.23;92.55;102003.47;5057396;28;20264;-73
2022/10/04 11:13:38;;;;;;;11.20;7.57;;;;;;;13.30;92.54;102003.25;5062571;28;20049;-73
2022/10/04 11:16:40;;;;;;;12.98;7.00;;;;;;;13.34;92.29;102016.28;5066201;28;20043;-73
2022/10/04 11:19:28;;;;;;;9.07;7.20;;;;;;;13.38;91.96;102017.03;5073974;28;20025;-73
2022/10/04 11:22:06;;;;;;;12.23;7.70;;;;;;;13.41;92.00;102024.84;5043435;28;20033;-73
2022/10/04 11:24:58;;;;;;;13.80;7.43;;;;;;;13.42;91.73;102014.28;5049816;28;20028;-73
2022/10/04 11:27:29;;;;;;;13.25;7.88;;;;;;;13.47;91.42;102011.47;5065256;28;20340;-74
2022/10/04 11:30:08;;;;;;;18.48;8.55;;;;;;;13.49;91.75;102008.78;5074053;28;20319;-73
2022/10/04 11:32:36;;;;;;;;;;;;;;;13.51;91.46;102004.31;5074361;28;20051;-73
2022/10/04 11:35:23;;;;;;;10.60;7.38;;;;;;;13.54;92.28;101996.34;5071140;28;19998;-73
2022/10/04 11:38:01;;;;;;;13.38;8.30;;;;;;;13.56;92.03;102003.25;5072958;28;20339;-73
2022/10/04 11:40:42;;;;;;;13.20;8.02;;;;;;;13.59;91.56;102000.53;5074186;28;20205;-73
2022/10/04 11:43:52;;;;;;;11.77;8.02;;;;;;;13.61;91.09;101992.56;5066407;28;20082;-73
2022/10/04 11:46:44;;;;;;;14.15;8.70;;;;;;;13.65;91.67;101993.34;5054748;28;20033;-73
2022/10/04 11:49:29;;;;;;;11.13;7.90;;;;;;;13.67;91.92;101997.63;5029551;28;20048;-73
2022/10/04 11:52:12;;;;;;;12.68;8.48;;;;;;;13.69;91.42;101995.78;5060896;28;20036;-73
2022/10/04 11:54:46;;;;;;;13.25;8.45;;;;;;;13.71;91.56;101996.59;5040794;28;20099;-73
2022/10/04 11:57:33;;;;;;;20.33;9.10;;;;;;;13.73;90.55;101984.22;5065947;28;20029;-73
2022/10/04 12:00:19;;;;;;;14.90;8.13;;;;;;;13.77;91.36;101970.06;5059992;28;20299;-73
2022/10/04 12:03:04;;;;;;;11.73;7.75;;;;;;;13.81;91.46;101966.41;5062968;28;20031;-74
2022/10/04 12:05:48;;;;;;;11.38;7.75;;;;;;;13.86;91.31;101970.63;5063350;28;20052;-73
2022/10/04 12:08:19;;;;;;;13.45;8.70;;;;;;;13.87;90.90;101975.84;5050038;28;20308;-73
2022/10/04 12:11:03;;;;;;;11.98;7.05;;;;;;;13.91;90.29;101974.81;5070207;28;20043;-73
2022/10/04 12:13:50;;;;;;;11.48;7.40;;;;;;;13.96;90.66;101970.22;5065892;28;20032;-73
2022/10/04 12:16:58;;;;;;;12.65;7.78;;;;;;;14.00;90.28;101976.25;5073060;28;20036;-73
2022/10/04 12:19:24;;;;;;;7.82;7.00;;;;;;;14.02;90.49;101961.25;5061862;28;20040;-73
2022/10/04 12:22:26;;;;;;;16.90;7.10;;;;;;;14.07;90.35;101955.81;5061484;28;20313;-73
2022/10/04 12:25:18;;;;;;;9.68;7.30;;;;;;;14.12;90.20;101956.50;5064737;28;20036;-73
2022/10/04 12:28:14;;;;;;;7.47;6.75;;;;;;;14.15;90.83;101938.81;5064259;28;20039;-73
2022/10/04 12:30:55;;;;;;;9.45;6.90;;;;;;;14.18;91.23;101941.31;5068524;28;20032;-73